Time;durP1;ratioP1;P1;durP2;ratioP2;P2;SDS_P1;SDS_P2;PMS_P1;PMS_P2;Temp;Humidity;BMP_temperature;BMP_pressure;BME280_temperature;BME280_humidity;BME280_pressure;Samples;Min_cycle;Max_cycle;Signal;HPM_P1;HPM_P2
2021/12/26 00:00:34;;;;;;;0.73;0.73;;;-6.40;99.90;;;;;;5028157;28;20406;-77
2021/12/26 00:03:00;;;;;;;0.40;0.40;;;-6.40;99.90;;;;;;5028093;28;20045;-78
2021/12/26 00:05:27;;;;;;;0.40;0.40;;;-6.40;99.90;;;;;;5028252;28;20053;-77
2021/12/26 00:07:53;;;;;;;0.40;0.40;;;-6.40;99.90;;;;;;4993134;28;20054;-77
2021/12/26 00:10:24;;;;;;;0.40;0.40;;;-6.40;99.90;;;;;;4995430;28;20072;-76
2021/12/26 00:12:51;;;;;;;0.40;0.40;;;-6.40;99.90;;;;;;4995058;28;20495;-76
2021/12/26 00:15:17;;;;;;;0.50;0.50;;;-6.40;99.90;;;;;;5012834;28;20041;-77
2021/12/26 00:17:43;;;;;;;0.43;0.43;;;-6.40;99.90;;;;;;5011837;28;20044;-77
2021/12/26 00:20:10;;;;;;;0.40;0.40;;;-6.40;99.90;;;;;;4995101;28;20406;-77
2021/12/26 00:22:37;;;;;;;0.50;0.50;;;-6.40;99.90;;;;;;4995396;28;20045;-77
2021/12/26 00:25:04;;;;;;;0.70;0.70;;;-6.40;99.90;;;;;;5012325;28;20049;-77
2021/12/26 00:27:30;;;;;;;0.70;0.70;;;-6.40;99.90;;;;;;5005640;28;20124;-77
2021/12/26 00:29:55;;;;;;;2.40;2.25;;;-6.40;99.90;;;;;;4992813;28;20507;-77
2021/12/26 00:32:21;;;;;;;2.40;2.30;;;-6.40;99.90;;;;;;4975519;28;20126;-78
2021/12/26 00:34:50;;;;;;;0.40;0.40;;;-6.40;99.90;;;;;;4991843;28;20046;-78
2021/12/26 00:37:16;;;;;;;0.50;0.50;;;-6.40;99.90;;;;;;4992842;28;20479;-77
2021/12/26 00:39:42;;;;;;;1.17;1.17;;;-6.40;99.90;;;;;;4992890;28;20097;-77
2021/12/26 00:42:08;;;;;;;0.40;0.40;;;-6.40;99.90;;;;;;4993177;28;20035;-77
2021/12/26 00:44:39;;;;;;;0.40;0.40;;;-6.50;99.90;;;;;;4993150;28;20038;-78
2021/12/26 00:47:08;;;;;;;6.15;2.67;;;-6.40;99.90;;;;;;4991344;28;20077;-79
2021/12/26 00:49:34;;;;;;;0.40;0.40;;;-6.40;99.90;;;;;;5004664;28;20427;-80
2021/12/26 00:52:00;;;;;;;0.40;0.40;;;-6.40;99.90;;;;;;4991819;28;20046;-81
2021/12/26 00:54:26;;;;;;;0.73;0.73;;;-6.40;99.90;;;;;;4991434;28;20457;-81
2021/12/26 00:56:51;;;;;;;0.32;0.32;;;-6.40;99.90;;;;;;4991207;28;20077;-80
2021/12/26 00:59:17;;;;;;;0.40;0.40;;;-6.40;99.90;;;;;;4991407;28;20050;-77
2021/12/26 01:01:43;;;;;;;0.50;0.50;;;-6.40;99.90;;;;;;4975848;28;20533;-77
2021/12/26 01:04:09;;;;;;;0.50;0.50;;;-6.40;99.90;;;;;;4975189;28;20146;-78
2021/12/26 01:06:35;;;;;;;1.80;1.80;;;-6.40;99.90;;;;;;4975240;28;20054;-77
2021/12/26 01:09:02;;;;;;;0.40;0.40;;;-6.40;99.90;;;;;;4978852;28;20063;-78
2021/12/26 01:11:37;;;;;;;0.40;0.40;;;-6.50;99.90;;;;;;4977185;28;20101;-77
2021/12/26 01:14:06;;;;;;;0.40;0.40;;;-6.50;99.90;;;;;;4976832;28;20514;-78
2021/12/26 01:16:32;;;;;;;0.50;0.50;;;-6.50;99.90;;;;;;4975517;28;20178;-78
2021/12/26 01:19:06;;;;;;;0.40;0.40;;;-6.50;99.90;;;;;;4976853;28;20070;-78
2021/12/26 01:21:31;;;;;;;0.50;0.50;;;-6.50;99.90;;;;;;4976042;28;20047;-78
2021/12/26 01:24:01;;;;;;;0.32;0.32;;;-6.50;99.90;;;;;;4975444;28;20046;-77
2021/12/26 01:26:28;;;;;;;0.77;0.77;;;-6.50;99.90;;;;;;4958977;28;20137;-77
2021/12/26 01:28:54;;;;;;;0.50;0.50;;;-6.50;99.90;;;;;;4990959;28;20050;-77
2021/12/26 01:31:22;;;;;;;0.40;0.40;;;-6.50;99.90;;;;;;4996105;28;20046;-78
2021/12/26 01:33:55;;;;;;;0.40;0.40;;;-6.50;99.90;;;;;;4978421;28;20057;-77
2021/12/26 01:36:21;;;;;;;0.47;0.47;;;-6.50;99.90;;;;;;4978756;28;20503;-77
2021/12/26 01:38:47;;;;;;;1.00;0.95;;;-6.50;99.90;;;;;;4995854;28;20499;-77
2021/12/26 01:41:16;;;;;;;0.50;0.50;;;-6.50;99.90;;;;;;4994999;28;20086;-78
2021/12/26 01:43:46;;;;;;;0.50;0.50;;;-6.50;99.90;;;;;;4996103;28;20050;-77
2021/12/26 01:46:12;;;;;;;0.60;0.60;;;-6.50;99.90;;;;;;4978547;28;20050;-77
2021/12/26 01:48:38;;;;;;;0.52;0.52;;;-6.50;99.90;;;;;;4978356;28;20125;-78
2021/12/26 01:51:04;;;;;;;0.50;0.50;;;-6.50;99.90;;;;;;4994351;28;20471;-77
2021/12/26 01:53:36;;;;;;;0.40;0.40;;;-6.50;99.90;;;;;;4978643;28;20050;-77
2021/12/26 01:56:11;;;;;;;0.40;0.40;;;-6.50;99.90;;;;;;4978207;28;20050;-77
2021/12/26 01:58:39;;;;;;;0.63;0.63;;;-6.50;99.90;;;;;;4978081;28;20050;-77
2021/12/26 02:01:14;;;;;;;0.60;0.60;;;-6.50;99.90;;;;;;4978123;28;20046;-78
2021/12/26 02:03:41;;;;;;;0.50;0.50;;;-6.50;99.90;;;;;;4978160;28;20125;-78
2021/12/26 02:06:08;;;;;;;0.50;0.50;;;-6.40;99.90;;;;;;4995797;28;20053;-78
2021/12/26 02:08:35;;;;;;;0.50;0.50;;;-6.50;99.90;;;;;;5005961;28;20078;-77
2021/12/26 02:11:02;;;;;;;2.72;2.63;;;-6.40;99.90;;;;;;5015093;28;20050;-78
2021/12/26 02:13:33;;;;;;;0.50;0.50;;;-6.40;99.90;;;;;;5015210;28;20049;-78
2021/12/26 02:15:59;;;;;;;1.38;1.02;;;-6.50;99.90;;;;;;5013596;28;20041;-78
2021/12/26 02:18:25;;;;;;;0.50;0.50;;;-6.50;99.90;;;;;;5014903;28;20050;-78
2021/12/26 02:23:30;;;;;;;0.40;0.40;;;-6.50;99.90;;;;;;5014885;28;20053;-79
2021/12/26 02:28:22;;;;;;;1.20;1.20;;;-6.50;99.90;;;;;;5014592;28;20057;-78
2021/12/26 02:30:49;;;;;;;0.40;0.40;;;-6.50;99.90;;;;;;5014369;28;20065;-78
2021/12/26 02:33:18;;;;;;;0.85;0.85;;;-6.50;99.90;;;;;;4996749;28;20052;-77
2021/12/26 02:35:44;;;;;;;0.50;0.50;;;-6.50;99.90;;;;;;5029961;28;20064;-78
2021/12/26 02:38:11;;;;;;;0.60;0.60;;;-6.50;99.90;;;;;;4997033;28;20046;-78
2021/12/26 02:40:37;;;;;;;0.60;0.60;;;-6.50;99.90;;;;;;5014477;28;20107;-77
2021/12/26 02:43:04;;;;;;;0.40;0.40;;;-6.50;99.90;;;;;;5014527;28;20088;-77
2021/12/26 02:45:31;;;;;;;0.50;0.50;;;-6.50;99.90;;;;;;5014229;28;20483;-78
2021/12/26 02:47:57;;;;;;;0.50;0.50;;;-6.50;99.90;;;;;;4996532;28;20130;-76
2021/12/26 02:50:29;;;;;;;0.40;0.40;;;-6.50;99.90;;;;;;4996974;28;20128;-77
2021/12/26 02:52:56;;;;;;;0.40;0.40;;;-6.50;99.90;;;;;;5013961;28;20479;-77
2021/12/26 02:55:23;;;;;;;0.50;0.50;;;-6.60;99.90;;;;;;5014330;28;20062;-77
2021/12/26 02:58:01;;;;;;;0.40;0.40;;;-6.50;99.90;;;;;;5014019;28;20127;-77
2021/12/26 03:00:32;;;;;;;1.15;1.15;;;-6.50;99.90;;;;;;5014068;28;20091;-78
2021/12/26 03:03:00;;;;;;;0.40;0.40;;;-6.60;99.90;;;;;;4996461;28;20125;-78
2021/12/26 03:05:29;;;;;;;0.55;0.55;;;-6.60;99.90;;;;;;4996288;28;20192;-77
2021/12/26 03:07:55;;;;;;;0.40;0.40;;;-6.60;99.90;;;;;;4996150;28;20499;-77
2021/12/26 03:10:24;;;;;;;0.40;0.40;;;-6.60;99.90;;;;;;5014127;28;20048;-78
2021/12/26 03:12:53;;;;;;;0.50;0.50;;;-6.60;99.90;;;;;;4996357;28;20065;-77
2021/12/26 03:15:19;;;;;;;0.47;0.47;;;-6.60;99.90;;;;;;5013945;28;20131;-77
2021/12/26 03:17:45;;;;;;;0.50;0.50;;;-6.70;99.90;;;;;;5013902;28;20041;-75
2021/12/26 03:20:13;;;;;;;0.45;0.45;;;-6.70;99.90;;;;;;5013830;28;20049;-77
2021/12/26 03:22:39;;;;;;;0.45;0.45;;;-6.70;99.90;;;;;;4996070;28;20053;-77
2021/12/26 03:25:10;;;;;;;0.50;0.50;;;-6.60;99.90;;;;;;5013679;28;20050;-78
2021/12/26 03:27:36;;;;;;;0.40;0.40;;;-6.70;99.90;;;;;;5013623;28;20073;-77
2021/12/26 03:30:04;;;;;;;0.50;0.50;;;-6.70;99.90;;;;;;5013625;28;20466;-77
2021/12/26 03:32:30;;;;;;;1.48;1.48;;;-6.70;99.90;;;;;;5012845;28;20046;-77
2021/12/26 03:34:56;;;;;;;0.40;0.40;;;-6.70;99.90;;;;;;5013736;28;20091;-78
2021/12/26 03:37:23;;;;;;;0.32;0.32;;;-6.70;99.90;;;;;;5013604;28;20509;-78
2021/12/26 03:39:49;;;;;;;0.40;0.40;;;-6.70;99.90;;;;;;4995809;28;20504;-77
2021/12/26 03:42:15;;;;;;;0.40;0.40;;;-6.70;99.90;;;;;;5012583;28;20088;-75
2021/12/26 03:44:41;;;;;;;0.40;0.40;;;-6.70;99.90;;;;;;5013850;28;20049;-78
2021/12/26 03:47:06;;;;;;;0.45;0.45;;;-6.70;99.90;;;;;;5028485;28;20053;-78
2021/12/26 03:49:33;;;;;;;0.60;0.60;;;-6.70;99.90;;;;;;5028785;28;20057;-77
2021/12/26 03:51:58;;;;;;;0.40;0.40;;;-6.70;99.90;;;;;;4995799;28;20057;-78
2021/12/26 03:54:24;;;;;;;0.50;0.50;;;-6.70;99.90;;;;;;5011985;28;20049;-78
2021/12/26 03:56:50;;;;;;;1.63;1.58;;;-6.80;99.90;;;;;;5012045;28;20049;-77
2021/12/26 03:59:16;;;;;;;0.93;0.93;;;-6.80;99.90;;;;;;5011931;28;20116;-76
2021/12/26 04:01:41;;;;;;;0.50;0.50;;;-6.80;99.90;;;;;;5012424;28;20038;-77
2021/12/26 04:04:07;;;;;;;0.40;0.40;;;-6.80;99.90;;;;;;5012200;28;20042;-78
2021/12/26 04:06:33;;;;;;;0.85;0.85;;;-6.80;99.90;;;;;;5013109;28;20053;-79
2021/12/26 04:08:58;;;;;;;0.30;0.30;;;-6.80;99.90;;;;;;4991542;28;20057;-77
2021/12/26 04:11:24;;;;;;;0.40;0.40;;;-6.80;99.90;;;;;;5011854;28;20054;-77
2021/12/26 04:13:50;;;;;;;0.63;0.63;;;-6.80;99.90;;;;;;4995681;28;20372;-77
2021/12/26 04:16:16;;;;;;;0.50;0.50;;;-6.80;99.90;;;;;;4995640;28;20068;-77
2021/12/26 04:18:42;;;;;;;0.40;0.40;;;-6.80;99.90;;;;;;4995492;28;20042;-77
2021/12/26 04:21:08;;;;;;;0.40;0.40;;;-6.80;99.90;;;;;;4995502;28;20088;-77
2021/12/26 04:23:34;;;;;;;0.50;0.50;;;-6.80;99.90;;;;;;5011634;28;20042;-77
2021/12/26 04:26:00;;;;;;;0.50;0.50;;;-6.80;99.90;;;;;;5012071;28;20063;-78
2021/12/26 04:28:26;;;;;;;1.75;1.60;;;-6.80;99.90;;;;;;5011780;28;20490;-77
2021/12/26 04:30:53;;;;;;;0.40;0.40;;;-6.80;99.90;;;;;;5011595;28;20046;-77
2021/12/26 04:33:20;;;;;;;0.40;0.40;;;-6.80;99.90;;;;;;4995144;28;20042;-76
2021/12/26 04:35:45;;;;;;;0.50;0.50;;;-6.80;99.90;;;;;;5013035;28;20060;-78
2021/12/26 04:38:11;;;;;;;11.38;5.55;;;-6.90;99.90;;;;;;4995277;28;20034;-77
2021/12/26 04:40:37;;;;;;;0.60;0.60;;;-6.90;99.90;;;;;;5012853;28;20049;-78
2021/12/26 04:43:02;;;;;;;0.50;0.50;;;-6.90;99.90;;;;;;4995106;28;20495;-77
2021/12/26 04:45:28;;;;;;;0.77;0.77;;;-6.90;99.90;;;;;;5016591;28;20046;-77
2021/12/26 04:47:54;;;;;;;0.45;0.45;;;-6.90;99.90;;;;;;5016886;28;20502;-78
2021/12/26 04:50:22;;;;;;;0.40;0.40;;;-6.90;99.90;;;;;;5016659;28;20053;-77
2021/12/26 04:52:49;;;;;;;0.50;0.50;;;-7.00;99.90;;;;;;5015367;28;20045;-77
2021/12/26 04:55:18;;;;;;;0.40;0.40;;;-7.00;99.90;;;;;;4999102;28;20462;-76
2021/12/26 04:57:44;;;;;;;0.55;0.55;;;-7.00;99.90;;;;;;5017004;28;20042;-77
2021/12/26 05:00:14;;;;;;;0.77;0.77;;;-7.00;99.90;;;;;;5015186;28;20041;-77
2021/12/26 05:02:42;;;;;;;2.38;2.08;;;-7.00;99.90;;;;;;4998812;28;20057;-77
2021/12/26 05:05:09;;;;;;;0.55;0.55;;;-7.00;99.90;;;;;;4999016;28;20050;-77
2021/12/26 05:07:35;;;;;;;0.40;0.40;;;-7.00;99.90;;;;;;4999198;28;20045;-77
2021/12/26 05:10:02;;;;;;;1.52;1.52;;;-7.00;99.90;;;;;;5015113;28;20058;-77
2021/12/26 05:12:28;;;;;;;0.50;0.50;;;-7.00;99.90;;;;;;4998937;28;20052;-77
2021/12/26 05:14:54;;;;;;;0.50;0.50;;;-7.00;99.90;;;;;;4999091;28;20129;-76
2021/12/26 05:17:19;;;;;;;0.40;0.40;;;-7.10;99.90;;;;;;4982679;28;20112;-76
2021/12/26 05:19:45;;;;;;;0.40;0.40;;;-7.10;99.90;;;;;;4999156;28;20045;-75
2021/12/26 05:22:10;;;;;;;0.40;0.40;;;-7.10;99.90;;;;;;5015402;28;20479;-77
2021/12/26 05:24:36;;;;;;;0.40;0.40;;;-7.10;99.90;;;;;;5016166;28;20049;-77
2021/12/26 05:27:02;;;;;;;0.47;0.47;;;-7.20;99.90;;;;;;5016460;28;20030;-77
2021/12/26 05:29:28;;;;;;;0.68;0.68;;;-7.20;99.90;;;;;;5016496;28;20545;-77
2021/12/26 05:31:53;;;;;;;0.40;0.40;;;-7.10;99.90;;;;;;5016415;28;20112;-77
2021/12/26 05:34:20;;;;;;;0.50;0.50;;;-7.10;99.90;;;;;;5015075;28;20137;-77
2021/12/26 05:36:46;;;;;;;0.50;0.50;;;-7.10;99.90;;;;;;5016292;28;20070;-76
2021/12/26 05:39:12;;;;;;;0.95;0.95;;;-7.10;99.90;;;;;;5016251;28;20053;-77
2021/12/26 05:41:38;;;;;;;0.68;0.68;;;-7.10;99.90;;;;;;5016220;28;20046;-77
2021/12/26 05:44:05;;;;;;;0.43;0.43;;;-7.10;99.90;;;;;;4998351;28;20053;-77
2021/12/26 05:46:31;;;;;;;0.50;0.50;;;-7.10;99.90;;;;;;5016053;28;20052;-77
2021/12/26 05:48:57;;;;;;;0.43;0.43;;;-7.20;99.90;;;;;;5016114;28;20049;-77
2021/12/26 05:51:22;;;;;;;1.15;1.15;;;-7.10;99.90;;;;;;4998437;28;20402;-77
2021/12/26 05:53:48;;;;;;;0.50;0.50;;;-7.20;99.90;;;;;;5014738;28;20553;-77
2021/12/26 05:56:13;;;;;;;2.85;2.67;;;-7.20;99.90;;;;;;5016063;28;20486;-77
2021/12/26 05:58:39;;;;;;;0.50;0.50;;;-7.20;99.90;;;;;;5015727;28;20077;-77
2021/12/26 06:01:05;;;;;;;0.50;0.50;;;-7.20;99.90;;;;;;5014408;28;20065;-77
2021/12/26 06:03:34;;;;;;;2.08;2.00;;;-7.20;99.90;;;;;;4997855;28;20038;-77
2021/12/26 06:06:00;;;;;;;0.50;0.50;;;-7.20;99.90;;;;;;5015830;28;20128;-77
2021/12/26 06:08:25;;;;;;;0.70;0.70;;;-7.20;99.90;;;;;;5015325;28;20515;-77
2021/12/26 06:10:51;;;;;;;0.47;0.47;;;-7.20;99.90;;;;;;5015460;28;20054;-77
2021/12/26 06:13:17;;;;;;;0.40;0.40;;;-7.20;99.90;;;;;;5014440;28;20097;-77
2021/12/26 06:15:42;;;;;;;0.50;0.50;;;-7.20;99.90;;;;;;5015378;28;20390;-77
2021/12/26 06:18:08;;;;;;;1.65;1.33;;;-7.10;99.90;;;;;;4997713;28;20125;-77
2021/12/26 06:20:34;;;;;;;0.50;0.50;;;-7.20;99.90;;;;;;5030459;28;20132;-77
2021/12/26 06:23:00;;;;;;;0.55;0.55;;;-7.20;99.90;;;;;;5015385;28;20042;-77
2021/12/26 06:25:25;;;;;;;0.60;0.60;;;-7.20;99.90;;;;;;5015419;28;20053;-76
2021/12/26 06:27:51;;;;;;;0.50;0.50;;;-7.20;99.90;;;;;;5015296;28;20034;-77
2021/12/26 06:30:17;;;;;;;1.02;1.02;;;-7.20;99.90;;;;;;5015257;28;20483;-76
2021/12/26 06:32:42;;;;;;;0.40;0.40;;;-7.20;99.90;;;;;;5013786;28;20052;-76
2021/12/26 06:35:09;;;;;;;0.90;0.88;;;-7.20;99.90;;;;;;5015212;28;20116;-77
2021/12/26 06:37:36;;;;;;;0.40;0.40;;;-7.20;99.90;;;;;;4997263;28;20545;-77
2021/12/26 06:40:02;;;;;;;0.50;0.50;;;-7.20;99.90;;;;;;4997167;28;20517;-77
2021/12/26 06:42:30;;;;;;;0.50;0.50;;;-7.10;99.90;;;;;;4997126;28;20046;-77
2021/12/26 06:44:55;;;;;;;0.50;0.50;;;-7.20;99.90;;;;;;5013597;28;20049;-77
2021/12/26 06:47:22;;;;;;;0.50;0.50;;;-7.20;99.90;;;;;;5014746;28;20045;-77
2021/12/26 06:49:48;;;;;;;6.15;5.88;;;-7.10;99.90;;;;;;5030142;28;20038;-78
2021/12/26 06:52:14;;;;;;;0.52;0.52;;;-7.10;99.90;;;;;;5014977;28;20586;-77
2021/12/26 06:54:40;;;;;;;0.60;0.60;;;-7.10;99.90;;;;;;5014672;28;20141;-78
2021/12/26 06:57:06;;;;;;;0.73;0.73;;;-7.20;99.90;;;;;;5013536;28;20167;-77
2021/12/26 06:59:32;;;;;;;1.50;1.50;;;-7.10;99.90;;;;;;5014623;28;20085;-77
2021/12/26 07:01:58;;;;;;;0.50;0.50;;;-7.10;99.90;;;;;;5014660;28;20463;-77
2021/12/26 07:04:23;;;;;;;1.10;1.10;;;-7.20;99.90;;;;;;5014564;28;20054;-77
2021/12/26 07:06:49;;;;;;;0.40;0.40;;;-7.10;99.90;;;;;;5013978;28;20054;-77
2021/12/26 07:09:15;;;;;;;0.50;0.50;;;-7.10;99.90;;;;;;5014249;28;20419;-78
2021/12/26 07:11:41;;;;;;;0.43;0.43;;;-7.10;99.90;;;;;;5014567;28;20409;-77
2021/12/26 07:14:08;;;;;;;0.57;0.57;;;-7.10;99.90;;;;;;5014359;28;20172;-78
2021/12/26 07:16:33;;;;;;;1.08;1.05;;;-7.10;99.90;;;;;;5029290;28;20069;-77
2021/12/26 07:18:59;;;;;;;0.60;0.60;;;-7.10;99.90;;;;;;5012653;28;20135;-77
2021/12/26 07:21:25;;;;;;;3.28;3.13;;;-7.10;99.90;;;;;;5012763;28;20038;-77
2021/12/26 07:23:51;;;;;;;0.50;0.50;;;-7.10;99.90;;;;;;5012858;28;20042;-77
2021/12/26 07:26:17;;;;;;;0.95;0.95;;;-7.10;99.90;;;;;;5029482;28;20056;-77
2021/12/26 07:28:43;;;;;;;0.50;0.50;;;-7.10;99.90;;;;;;5012706;28;20049;-78
2021/12/26 07:31:09;;;;;;;0.52;0.52;;;-7.10;99.90;;;;;;5013815;28;20041;-77
2021/12/26 07:33:35;;;;;;;0.50;0.50;;;-7.00;99.90;;;;;;5013981;28;20052;-77
2021/12/26 07:36:02;;;;;;;0.40;0.40;;;-7.10;99.90;;;;;;5012642;28;20050;-77
2021/12/26 07:38:28;;;;;;;0.50;0.50;;;-7.00;99.90;;;;;;5028775;28;20050;-78
2021/12/26 07:40:53;;;;;;;0.43;0.43;;;-7.00;99.90;;;;;;5012322;28;20395;-78
2021/12/26 07:43:19;;;;;;;0.50;0.50;;;-7.00;99.90;;;;;;5012646;28;20076;-77
2021/12/26 07:45:45;;;;;;;0.55;0.55;;;-7.00;99.90;;;;;;5012424;28;20409;-77
2021/12/26 07:48:10;;;;;;;5.70;5.28;;;-7.00;99.90;;;;;;5012359;28;20042;-77
2021/12/26 07:50:36;;;;;;;0.77;0.77;;;-7.00;99.90;;;;;;5012172;28;20138;-77
2021/12/26 07:53:07;;;;;;;2.53;2.45;;;-7.00;99.90;;;;;;5012205;28;20048;-78
2021/12/26 07:55:33;;;;;;;0.60;0.60;;;-7.00;99.90;;;;;;5029055;28;20045;-78
2021/12/26 07:57:59;;;;;;;0.50;0.50;;;-7.00;99.90;;;;;;5013601;28;20140;-78
2021/12/26 08:00:25;;;;;;;1.60;1.60;;;-7.00;99.90;;;;;;5028603;28;20128;-77
2021/12/26 08:02:51;;;;;;;0.50;0.50;;;-7.00;99.90;;;;;;5013638;28;20474;-77
2021/12/26 08:05:17;;;;;;;1.40;1.40;;;-6.90;99.90;;;;;;5013855;28;20445;-78
2021/12/26 08:07:43;;;;;;;1.35;1.35;;;-6.90;99.90;;;;;;5014022;28;20045;-78
2021/12/26 08:10:09;;;;;;;0.50;0.50;;;-6.90;99.90;;;;;;5012970;28;20061;-77
2021/12/26 08:12:35;;;;;;;0.93;0.93;;;-6.80;99.90;;;;;;4995845;28;20089;-77
2021/12/26 08:15:02;;;;;;;0.50;0.50;;;-6.80;99.90;;;;;;5013847;28;20565;-76
2021/12/26 08:17:29;;;;;;;1.08;1.08;;;-6.60;99.90;;;;;;5013509;28;20478;-78
2021/12/26 08:19:56;;;;;;;0.40;0.40;;;-6.80;99.90;;;;;;5012678;28;20556;-80
2021/12/26 08:22:21;;;;;;;0.50;0.50;;;-6.70;99.90;;;;;;4995395;28;20049;-79
2021/12/26 08:24:47;;;;;;;0.50;0.50;;;-6.60;99.90;;;;;;5012898;28;20378;-80
2021/12/26 08:27:13;;;;;;;0.90;0.90;;;-6.60;99.90;;;;;;5013051;28;20044;-77
2021/12/26 08:29:38;;;;;;;0.50;0.50;;;-6.60;99.90;;;;;;5013217;28;20133;-77
2021/12/26 08:32:05;;;;;;;1.50;1.40;;;-6.60;99.90;;;;;;5013125;28;20471;-76
2021/12/26 08:34:31;;;;;;;0.43;0.43;;;-6.60;99.90;;;;;;5013095;28;20049;-77
2021/12/26 08:37:00;;;;;;;0.50;0.50;;;-6.50;99.90;;;;;;5012939;28;20038;-77
2021/12/26 08:39:33;;;;;;;0.50;0.50;;;-6.50;99.90;;;;;;5028034;28;20057;-76
2021/12/26 08:41:59;;;;;;;0.55;0.55;;;-6.50;99.90;;;;;;5011476;28;20046;-76
2021/12/26 08:44:25;;;;;;;0.50;0.50;;;-6.40;99.90;;;;;;5011444;28;20058;-78
2021/12/26 08:46:51;;;;;;;0.40;0.40;;;-6.40;99.90;;;;;;5012750;28;20096;-78
2021/12/26 08:49:17;;;;;;;0.50;0.50;;;-6.40;99.90;;;;;;5011578;28;20054;-77
2021/12/26 08:51:43;;;;;;;1.00;1.00;;;-6.30;99.90;;;;;;5013161;28;20050;-78
2021/12/26 08:54:10;;;;;;;0.70;0.70;;;-6.30;99.90;;;;;;5012910;28;20050;-77
2021/12/26 08:56:36;;;;;;;0.50;0.50;;;-6.30;99.90;;;;;;5011423;28;20061;-75
2021/12/26 08:59:01;;;;;;;0.60;0.60;;;-6.30;99.90;;;;;;5012840;28;20053;-80
2021/12/26 09:01:27;;;;;;;0.63;0.63;;;-6.20;99.90;;;;;;5011501;28;20050;-79
2021/12/26 09:03:53;;;;;;;0.50;0.50;;;-6.20;99.90;;;;;;5012861;28;20120;-77
2021/12/26 09:06:19;;;;;;;0.50;0.50;;;-6.10;99.90;;;;;;5012845;28;20042;-78
2021/12/26 09:08:45;;;;;;;0.77;0.77;;;-6.10;99.90;;;;;;4994982;28;20050;-78
2021/12/26 09:11:10;;;;;;;0.45;0.45;;;-6.10;99.90;;;;;;5012583;28;20077;-79
2021/12/26 09:13:36;;;;;;;0.80;0.80;;;-6.00;99.90;;;;;;5012869;28;20049;-78
2021/12/26 09:16:02;;;;;;;0.52;0.52;;;-6.00;99.90;;;;;;5012775;28;20089;-77
2021/12/26 09:18:29;;;;;;;0.82;0.82;;;-5.90;99.90;;;;;;5027847;28;20064;-78
2021/12/26 09:20:55;;;;;;;1.67;1.67;;;-5.90;99.90;;;;;;5012637;28;20084;-78
2021/12/26 09:23:20;;;;;;;0.50;0.50;;;-5.80;99.90;;;;;;5011173;28;20085;-79
2021/12/26 09:25:46;;;;;;;0.30;0.30;;;-5.80;99.90;;;;;;5012662;28;20045;-79
2021/12/26 09:28:12;;;;;;;2.15;1.73;;;-5.70;99.90;;;;;;5011558;28;20104;-79
2021/12/26 09:30:38;;;;;;;1.10;1.10;;;-5.70;99.90;;;;;;5013594;28;20049;-78
2021/12/26 09:33:04;;;;;;;1.67;1.58;;;-5.70;99.90;;;;;;5016248;28;20053;-79
2021/12/26 09:35:31;;;;;;;1.45;1.40;;;-5.60;99.90;;;;;;5016295;28;20038;-78
2021/12/26 09:37:57;;;;;;;0.40;0.40;;;-5.60;99.90;;;;;;5016132;28;20049;-79
2021/12/26 09:40:23;;;;;;;0.80;0.80;;;-5.50;99.90;;;;;;5016127;28;20449;-79
2021/12/26 09:42:49;;;;;;;0.90;0.90;;;-5.50;99.90;;;;;;5014557;28;20052;-79
2021/12/26 09:45:16;;;;;;;1.10;1.00;;;-5.40;99.90;;;;;;5015931;28;20050;-79
2021/12/26 09:47:43;;;;;;;0.40;0.40;;;-5.30;99.90;;;;;;5015732;28;20505;-77
2021/12/26 09:50:13;;;;;;;0.45;0.45;;;-5.30;99.90;;;;;;5030982;28;20045;-77
2021/12/26 09:52:43;;;;;;;0.40;0.40;;;-5.20;99.90;;;;;;5015968;28;20081;-78
2021/12/26 09:55:10;;;;;;;0.40;0.40;;;-5.10;99.90;;;;;;5031290;28;20505;-79
2021/12/26 09:57:36;;;;;;;0.32;0.32;;;-5.00;99.90;;;;;;4997941;28;20549;-78
2021/12/26 10:00:21;;;;;;;0.38;0.38;;;-5.00;99.90;;;;;;5014404;28;20050;-78
2021/12/26 10:02:47;;;;;;;6.32;1.60;;;-4.90;99.90;;;;;;5031064;28;20097;-79
2021/12/26 10:05:13;;;;;;;0.50;0.50;;;-4.80;99.90;;;;;;5014362;28;20046;-78
2021/12/26 10:07:39;;;;;;;0.30;0.30;;;-4.70;99.90;;;;;;5015700;28;20046;-78
2021/12/26 10:10:07;;;;;;;0.55;0.55;;;-4.60;99.90;;;;;;5015233;28;20064;-79
2021/12/26 10:12:42;;;;;;;1.00;1.00;;;-4.60;99.90;;;;;;5030777;28;20060;-78
2021/12/26 10:15:08;;;;;;;0.70;0.70;;;-4.50;99.90;;;;;;5015478;28;20042;-78
2021/12/26 10:17:34;;;;;;;0.52;0.52;;;-4.40;99.90;;;;;;4997580;28;20050;-80
2021/12/26 10:20:06;;;;;;;0.40;0.40;;;-4.30;99.90;;;;;;5013977;28;20045;-80
2021/12/26 10:22:31;;;;;;;;;;;-4.30;99.90;;;;;;5014103;28;20435;-79
2021/12/26 10:24:57;;;;;;;1.33;1.00;;;-4.30;99.90;;;;;;4997150;28;19929;-79
2021/12/26 10:27:30;;;;;;;0.30;0.30;;;-4.20;99.90;;;;;;4997388;28;20053;-80
2021/12/26 10:29:58;;;;;;;0.25;0.25;;;-4.10;99.90;;;;;;4997508;28;20038;-79
2021/12/26 10:32:33;;;;;;;3.30;1.85;;;-4.00;99.90;;;;;;4997536;28;20406;-79
2021/12/26 10:35:00;;;;;;;2.40;1.40;;;-4.00;99.90;;;;;;5013910;28;20514;-78
2021/12/26 10:37:55;;;;;;;1.75;1.63;;;-3.90;99.90;;;;;;5014866;28;20121;-79
2021/12/26 10:40:24;;;;;;;0.40;0.40;;;-3.80;99.90;;;;;;4970279;28;20059;-82
2021/12/26 10:42:55;;;;;;;2.33;2.22;;;-3.80;99.90;;;;;;4937855;29;20058;-78
2021/12/26 10:45:25;;;;;;;0.60;0.60;;;-3.80;99.90;;;;;;4938326;29;20145;-78
2021/12/26 10:47:57;;;;;;;0.70;0.70;;;-3.80;99.90;;;;;;4938351;29;20504;-80
2021/12/26 10:50:26;;;;;;;0.65;0.65;;;-3.70;99.90;;;;;;4954221;29;20142;-78
2021/12/26 10:52:57;;;;;;;1.02;1.00;;;-3.70;99.90;;;;;;4938395;29;20105;-78
2021/12/26 10:55:36;;;;;;;0.68;0.68;;;-3.70;99.90;;;;;;4938078;29;20051;-80
2021/12/26 10:58:20;;;;;;;0.52;0.52;;;-3.70;99.90;;;;;;4938280;29;20385;-78
2021/12/26 11:00:53;;;;;;;0.82;0.82;;;-3.70;99.90;;;;;;4937897;29;20109;-78
2021/12/26 11:03:25;;;;;;;0.50;0.50;;;-3.60;99.90;;;;;;4938168;29;20059;-80
2021/12/26 11:05:53;;;;;;;1.75;1.35;;;-3.60;99.90;;;;;;4938236;29;20095;-80
2021/12/26 11:08:30;;;;;;;0.40;0.40;;;-3.50;99.90;;;;;;4937785;29;20051;-78
2021/12/26 11:10:58;;;;;;;0.65;0.65;;;-3.50;99.90;;;;;;4938137;29;20145;-79
2021/12/26 11:13:31;;;;;;;0.30;0.30;;;-3.40;99.90;;;;;;4954046;29;20089;-78
2021/12/26 11:16:02;;;;;;;0.50;0.50;;;-3.40;99.90;;;;;;4964855;28;20076;-79
2021/12/26 11:18:28;;;;;;;2.78;2.70;;;-3.30;99.90;;;;;;4996608;28;20046;-78
2021/12/26 11:20:59;;;;;;;0.68;0.68;;;-3.30;99.90;;;;;;5029372;28;20143;-79
2021/12/26 11:23:27;;;;;;;0.98;0.98;;;-3.30;99.90;;;;;;5014351;28;20045;-78
2021/12/26 11:25:59;;;;;;;3.20;1.85;;;-3.20;99.90;;;;;;5014405;28;20042;-79
2021/12/26 11:28:29;;;;;;;0.35;0.35;;;-3.20;99.90;;;;;;5014245;28;20050;-81
2021/12/26 11:31:00;;;;;;;0.40;0.40;;;-3.20;99.90;;;;;;5014003;28;20483;-79
2021/12/26 11:33:26;;;;;;;1.77;1.75;;;-3.10;99.90;;;;;;5013971;28;20108;-78
2021/12/26 11:35:53;;;;;;;0.30;0.30;;;-3.10;99.90;;;;;;5013051;28;20038;-79
2021/12/26 11:38:22;;;;;;;0.95;0.95;;;-3.00;99.90;;;;;;5029119;28;20056;-79
2021/12/26 11:41:04;;;;;;;0.45;0.45;;;-3.00;99.90;;;;;;5014116;28;20443;-79
2021/12/26 11:43:54;;;;;;;1.08;1.05;;;-2.90;99.90;;;;;;5013946;28;20053;-80
2021/12/26 11:46:50;;;;;;;2.25;0.88;;;-2.90;99.90;;;;;;5029648;28;20077;-78
2021/12/26 11:49:45;;;;;;;0.30;0.30;;;-2.80;99.90;;;;;;5012551;28;20053;-76
2021/12/26 11:52:38;;;;;;;1.08;1.08;;;-2.70;99.90;;;;;;4998518;28;20049;-78
2021/12/26 11:55:44;;;;;;;6.22;1.20;;;-2.70;99.90;;;;;;4996315;28;20085;-77
2021/12/26 11:58:31;;;;;;;0.57;0.57;;;-2.60;99.90;;;;;;5028707;28;20077;-78
2021/12/26 12:00:59;;;;;;;1.55;0.82;;;-2.60;99.90;;;;;;4995784;28;20065;-79
2021/12/26 12:03:29;;;;;;;0.60;0.60;;;-2.50;99.90;;;;;;5013258;28;20068;-78
2021/12/26 12:05:55;;;;;;;0.95;0.95;;;-2.50;99.90;;;;;;5028783;28;20044;-77
2021/12/26 12:08:31;;;;;;;2.00;1.80;;;-2.40;99.90;;;;;;5026449;28;20411;-78
2021/12/26 12:11:05;;;;;;;0.88;0.88;;;-2.30;99.90;;;;;;5012150;28;20060;-79
2021/12/26 12:13:53;;;;;;;0.40;0.40;;;-2.30;99.90;;;;;;5028572;28;20116;-78
2021/12/26 12:16:26;;;;;;;0.30;0.30;;;-2.20;99.90;;;;;;5013552;28;20045;-80
2021/12/26 12:18:57;;;;;;;0.30;0.30;;;-2.10;99.90;;;;;;5012268;28;20064;-79
2021/12/26 12:21:33;;;;;;;0.60;0.60;;;-2.10;99.90;;;;;;5013579;28;20042;-78
2021/12/26 12:24:17;;;;;;;0.30;0.30;;;-2.00;99.90;;;;;;5028206;28;20041;-79
2021/12/26 12:27:01;;;;;;;14.80;1.45;;;-2.00;99.90;;;;;;5028721;28;20483;-77
2021/12/26 12:29:30;;;;;;;0.32;0.32;;;-1.90;99.90;;;;;;4995377;28;20054;-78
2021/12/26 12:32:08;;;;;;;1.27;1.23;;;-1.90;99.90;;;;;;5013331;28;20049;-80
2021/12/26 12:35:01;;;;;;;0.30;0.30;;;-1.80;99.90;;;;;;5028335;28;20050;-79
2021/12/26 12:37:30;;;;;;;0.30;0.30;;;-1.80;99.90;;;;;;5013372;28;20061;-78
2021/12/26 12:40:33;;;;;;;1.85;1.75;;;-1.80;99.90;;;;;;5013200;28;20050;-76
2021/12/26 12:43:18;;;;;;;0.93;0.88;;;-1.70;99.90;;;;;;4936305;28;20059;-80
2021/12/26 12:45:57;;;;;;;1.75;1.45;;;-1.70;99.90;;;;;;4952589;29;20433;-80
2021/12/26 12:48:34;;;;;;;0.43;0.43;;;-1.60;99.90;;;;;;4952442;29;20070;-81
2021/12/26 12:51:23;;;;;;;0.20;0.20;;;-1.60;99.90;;;;;;4952431;29;20055;-80
2021/12/26 12:53:59;;;;;;;0.68;0.68;;;-1.60;99.90;;;;;;4895267;29;20056;-77
2021/12/26 12:56:34;;;;;;;0.38;0.38;;;-1.50;99.90;;;;;;4895452;29;20057;-79
2021/12/26 12:59:14;;;;;;;19.17;1.95;;;-1.50;99.90;;;;;;4895158;29;20056;-80